createdAt,value
2022-09-07T00:01:08.634Z,15.62
2022-09-07T00:03:36.981Z,15.60
2022-09-07T00:06:08.080Z,15.57
2022-09-07T00:08:38.299Z,15.53
2022-09-07T00:11:12.691Z,15.51
2022-09-07T00:13:42.213Z,15.48
2022-09-07T00:16:15.232Z,15.46
2022-09-07T00:18:46.022Z,15.42
2022-09-07T00:21:17.377Z,15.39
2022-09-07T00:23:46.106Z,15.35
2022-09-07T00:26:20.446Z,15.35
2022-09-07T00:28:49.303Z,15.37
2022-09-07T00:31:21.185Z,15.40
2022-09-07T00:33:51.382Z,15.42
2022-09-07T00:36:21.589Z,15.43
2022-09-07T00:38:49.737Z,15.42
2022-09-07T00:41:19.719Z,15.42
2022-09-07T00:43:50.726Z,15.40
2022-09-07T00:46:20.524Z,15.38
2022-09-07T00:49:13.028Z,15.34
2022-09-07T00:51:53.666Z,15.27
2022-09-07T00:54:38.951Z,15.21
2022-09-07T00:57:07.423Z,15.15
2022-09-07T00:59:42.654Z,15.11
2022-09-07T01:02:12.827Z,15.04
2022-09-07T01:04:41.271Z,14.98
2022-09-07T01:07:09.167Z,14.92
2022-09-07T01:09:39.357Z,14.90
2022-09-07T01:12:08.794Z,14.93
2022-09-07T01:14:43.190Z,14.94
2022-09-07T01:17:42.437Z,14.96
2022-09-07T01:20:50.645Z,14.99
2022-09-07T01:23:53.099Z,14.99
2022-09-07T01:27:03.359Z,14.98
2022-09-07T01:29:57.048Z,14.95
2022-09-07T01:32:47.591Z,14.92
2022-09-07T01:35:28.772Z,14.87
2022-09-07T01:38:03.634Z,14.83
2022-09-07T01:40:54.882Z,14.79
2022-09-07T01:43:32.358Z,14.75
2022-09-07T01:46:03.608Z,14.71
2022-09-07T01:48:33.878Z,14.66
2022-09-07T01:51:04.427Z,14.62
2022-09-07T01:54:03.709Z,14.60
2022-09-07T01:56:36.339Z,14.64
2022-09-07T01:59:10.149Z,14.69
2022-09-07T02:01:45.226Z,14.73
2022-09-07T02:04:22.186Z,14.76
2022-09-07T02:06:53.654Z,14.77
2022-09-07T02:09:43.089Z,14.76
2022-09-07T02:12:31.025Z,14.75
2022-09-07T02:15:11.433Z,14.74
2022-09-07T02:17:48.542Z,14.74
2022-09-07T02:20:31.491Z,14.71
2022-09-07T02:23:06.607Z,14.68
2022-09-07T02:26:00.471Z,14.64
2022-09-07T02:28:33.269Z,14.61
2022-09-07T02:31:02.110Z,14.58
2022-09-07T02:33:31.046Z,14.56
2022-09-07T02:36:00.561Z,14.55
2022-09-07T02:38:28.589Z,14.57
2022-09-07T02:41:00.012Z,14.60
2022-09-07T02:43:31.060Z,14.64
2022-09-07T02:46:23.072Z,14.67
2022-09-07T02:49:32.437Z,14.67
2022-09-07T02:52:31.350Z,14.65
2022-09-07T02:55:18.272Z,14.60
2022-09-07T02:58:17.779Z,14.53
2022-09-07T03:00:57.943Z,14.48
2022-09-07T03:04:04.161Z,14.44
2022-09-07T03:06:41.093Z,14.39
2022-09-07T03:09:16.809Z,14.33
2022-09-07T03:11:45.750Z,14.28
2022-09-07T03:14:19.415Z,14.28
2022-09-07T03:16:50.581Z,14.31
2022-09-07T03:19:18.507Z,14.35
2022-09-07T03:21:46.475Z,14.37
2022-09-07T03:24:14.364Z,14.39
2022-09-07T03:26:46.428Z,14.40
2022-09-07T03:29:15.307Z,14.39
2022-09-07T03:31:43.216Z,14.35
2022-09-07T03:34:11.762Z,14.31
2022-09-07T03:36:40.834Z,14.27
2022-09-07T03:39:12.216Z,14.22
2022-09-07T03:41:40.694Z,14.19
2022-09-07T03:44:08.817Z,14.16
2022-09-07T03:46:36.677Z,14.11
2022-09-07T03:49:04.463Z,14.06
2022-09-07T03:51:32.289Z,14.00
2022-09-07T03:54:00.571Z,13.95
2022-09-07T03:56:29.622Z,13.93
2022-09-07T03:58:58.363Z,13.95
2022-09-07T04:01:27.324Z,13.98
2022-09-07T04:04:02.136Z,14.00
2022-09-07T04:06:32.063Z,14.03
2022-09-07T04:09:02.586Z,14.05
2022-09-07T04:11:32.903Z,14.03
2022-09-07T04:14:01.215Z,14.00
2022-09-07T04:16:31.434Z,14.00
2022-09-07T04:18:59.710Z,13.98
2022-09-07T04:21:29.281Z,13.96
2022-09-07T04:23:58.049Z,13.94
2022-09-07T04:26:29.690Z,13.92
2022-09-07T04:28:58.800Z,13.87
2022-09-07T04:31:27.751Z,13.84
2022-09-07T04:33:56.742Z,13.80
2022-09-07T04:36:28.337Z,13.81
2022-09-07T04:39:02.225Z,13.86
2022-09-07T04:41:31.615Z,13.90
2022-09-07T04:44:05.162Z,13.93
2022-09-07T04:46:35.400Z,13.97
2022-09-07T04:49:06.904Z,13.99
2022-09-07T04:51:35.849Z,13.99
2022-09-07T04:54:05.020Z,14.00
2022-09-07T04:56:34.049Z,14.01
2022-09-07T04:59:03.168Z,14.03
2022-09-07T05:01:31.201Z,14.03
2022-09-07T05:04:01.298Z,14.03
2022-09-07T05:06:29.808Z,14.01
2022-09-07T05:08:59.360Z,14.00
2022-09-07T05:11:29.529Z,14.00
2022-09-07T05:14:00.531Z,14.00
2022-09-07T05:16:29.702Z,14.04
2022-09-07T05:19:01.674Z,14.10
2022-09-07T05:21:32.245Z,14.19
2022-09-07T05:24:01.792Z,14.28
2022-09-07T05:26:33.413Z,14.35
2022-09-07T05:31:54.950Z,14.43
2022-09-07T05:36:54.404Z,14.50
2022-09-07T05:39:22.242Z,14.54
2022-09-07T05:41:50.108Z,14.56
2022-09-07T05:47:05.989Z,14.60
2022-09-07T05:49:34.160Z,14.62
2022-09-07T05:52:02.341Z,14.62
2022-09-07T05:54:30.150Z,14.64
2022-09-07T05:56:58.007Z,14.69
2022-09-07T05:59:25.839Z,14.76
2022-09-07T06:01:53.913Z,14.84
2022-09-07T06:04:22.932Z,14.90
2022-09-07T06:07:20.083Z,14.96
2022-09-07T06:12:28.486Z,15.09
2022-09-07T06:14:56.325Z,15.14
2022-09-07T06:17:24.234Z,15.21
2022-09-07T06:19:52.310Z,15.30
2022-09-07T06:22:20.091Z,15.43
2022-09-07T06:24:49.012Z,15.53
2022-09-07T06:27:16.889Z,15.63
2022-09-07T06:29:45.939Z,15.69
2022-09-07T06:35:02.182Z,15.81
2022-09-07T06:37:31.839Z,15.87
2022-09-07T06:39:59.994Z,15.94
2022-09-07T06:42:28.043Z,16.01
2022-09-07T06:44:55.970Z,16.06
2022-09-07T06:47:25.006Z,16.10
2022-09-07T06:49:55.029Z,16.13
2022-09-07T06:52:23.487Z,16.19
2022-09-07T06:54:59.886Z,16.29
2022-09-07T06:57:28.170Z,16.40
2022-09-07T06:59:56.172Z,16.47
2022-09-07T07:02:26.306Z,16.52
2022-09-07T07:04:54.976Z,16.55
2022-09-07T07:07:24.166Z,16.59
2022-09-07T07:09:52.055Z,16.63
2022-09-07T07:14:47.257Z,16.71
2022-09-07T07:17:15.503Z,16.76
2022-09-07T07:19:45.313Z,16.80
2022-09-07T07:22:36.090Z,16.87
2022-09-07T07:25:02.195Z,16.98
2022-09-07T07:27:32.597Z,17.08
2022-09-07T07:30:01.457Z,17.17
2022-09-07T07:32:31.347Z,17.24
2022-09-07T07:34:59.179Z,17.29
2022-09-07T07:37:28.403Z,17.35
2022-09-07T07:42:45.561Z,17.45
2022-09-07T07:48:04.155Z,17.55
2022-09-07T07:50:32.875Z,17.65
2022-09-07T07:55:50.276Z,17.85
2022-09-07T07:58:29.701Z,17.93
2022-09-07T08:01:12.785Z,18.01
2022-09-07T08:03:44.107Z,18.06
2022-09-07T08:06:14.424Z,18.11
2022-09-07T08:08:43.336Z,18.17
2022-09-07T08:11:17.815Z,18.23
2022-09-07T08:13:49.713Z,18.28
2022-09-07T08:16:18.465Z,18.34
2022-09-07T08:18:47.210Z,18.40
2022-09-07T08:21:17.367Z,18.50
2022-09-07T08:23:45.340Z,18.58
2022-09-07T08:26:14.688Z,18.64
2022-09-07T08:28:46.859Z,18.69
2022-09-07T08:31:17.122Z,18.71
2022-09-07T08:33:45.837Z,18.75
2022-09-07T08:36:17.908Z,18.80
2022-09-07T08:38:47.143Z,18.84
2022-09-07T08:41:40.800Z,18.88
2022-09-07T08:44:19.685Z,18.95
2022-09-07T08:47:25.802Z,19.01
2022-09-07T08:50:17.968Z,19.06
2022-09-07T08:53:01.552Z,19.11
2022-09-07T08:55:46.925Z,19.19
2022-09-07T08:58:48.085Z,19.30
2022-09-07T09:01:34.618Z,19.40
2022-09-07T09:04:19.553Z,19.46
2022-09-07T09:07:10.355Z,19.53
2022-09-07T09:10:13.048Z,19.61
2022-09-07T09:13:10.106Z,19.72
2022-09-07T09:15:52.519Z,19.78
2022-09-07T09:18:27.600Z,19.84
2022-09-07T09:20:57.304Z,19.90
2022-09-07T09:23:28.681Z,19.96
2022-09-07T09:26:01.555Z,20.03
2022-09-07T09:28:31.838Z,20.09
2022-09-07T09:31:00.958Z,20.16
2022-09-07T09:33:29.135Z,20.23
2022-09-07T09:35:59.962Z,20.29
2022-09-07T09:38:36.560Z,20.37
2022-09-07T09:41:31.974Z,20.46
2022-09-07T09:44:00.505Z,20.55
2022-09-07T09:46:34.360Z,20.63
2022-09-07T09:49:16.037Z,20.73
2022-09-07T09:54:48.773Z,20.94
2022-09-07T09:57:18.865Z,21.01
2022-09-07T10:00:07.034Z,21.08
2022-09-07T10:05:37.314Z,21.25
2022-09-07T10:08:26.826Z,21.33
2022-09-07T10:11:08.335Z,21.42
2022-09-07T10:13:54.983Z,21.50
2022-09-07T10:16:40.549Z,21.57
2022-09-07T10:19:32.764Z,21.61
2022-09-07T10:22:35.025Z,21.65
2022-09-07T10:25:42.088Z,21.74
2022-09-07T10:28:19.498Z,21.85
2022-09-07T10:30:59.939Z,21.91
2022-09-07T10:33:36.490Z,21.99
2022-09-07T10:36:44.370Z,22.08
2022-09-07T10:39:19.301Z,22.16
2022-09-07T10:42:03.299Z,22.25
2022-09-07T10:45:01.141Z,22.37
2022-09-07T10:47:57.710Z,22.49
2022-09-07T10:50:50.325Z,22.59
2022-09-07T10:57:25.163Z,22.82
2022-09-07T11:00:08.358Z,22.94
2022-09-07T11:03:28.159Z,23.00
2022-09-07T11:06:16.734Z,23.05
2022-09-07T11:09:21.299Z,23.09
2022-09-07T11:12:05.586Z,23.13
2022-09-07T11:14:42.990Z,23.17
2022-09-07T11:17:41.695Z,23.20
2022-09-07T11:20:44.799Z,23.26
2022-09-07T11:23:20.947Z,23.28
2022-09-07T11:26:17.771Z,23.29
2022-09-07T11:31:51.929Z,23.34
2022-09-07T11:34:32.114Z,23.38
2022-09-07T11:37:32.302Z,23.43
2022-09-07T11:40:30.922Z,23.50
2022-09-07T11:43:22.072Z,23.57
2022-09-07T11:45:58.944Z,23.62
2022-09-07T11:48:51.865Z,23.67
2022-09-07T11:51:37.762Z,23.71
2022-09-07T11:54:46.626Z,23.75
2022-09-07T11:57:27.564Z,23.82
2022-09-07T12:00:11.097Z,23.86
2022-09-07T12:02:59.743Z,23.92
2022-09-07T12:05:49.221Z,23.97
2022-09-07T12:08:23.266Z,24.01
2022-09-07T12:11:32.966Z,24.07
2022-09-07T12:14:25.363Z,24.15
2022-09-07T12:16:59.297Z,24.21
2022-09-07T12:19:28.633Z,24.28
2022-09-07T12:21:59.702Z,24.34
2022-09-07T12:24:44.698Z,24.39
2022-09-07T12:27:22.141Z,24.46
2022-09-07T12:30:11.172Z,24.50
2022-09-07T12:32:55.428Z,24.56
2022-09-07T12:35:34.715Z,24.63
2022-09-07T12:38:32.395Z,24.72
2022-09-07T12:41:20.665Z,24.81
2022-09-07T12:43:48.786Z,24.88
2022-09-07T12:46:38.041Z,24.94
2022-09-07T12:49:21.925Z,25.00
2022-09-07T12:52:31.538Z,25.03
2022-09-07T12:55:27.200Z,25.07
2022-09-07T12:58:22.942Z,25.09
2022-09-07T13:01:07.214Z,25.13
2022-09-07T13:04:09.810Z,25.15
2022-09-07T13:07:07.027Z,25.18
2022-09-07T13:09:42.639Z,25.21
2022-09-07T13:12:56.811Z,25.26
2022-09-07T13:15:49.076Z,25.35
2022-09-07T13:18:47.758Z,25.43
2022-09-07T13:21:18.712Z,25.47
2022-09-07T13:27:44.897Z,25.61
2022-09-07T13:30:16.710Z,25.67
2022-09-07T13:35:33.944Z,25.57
2022-09-07T13:38:03.807Z,25.56
2022-09-07T13:40:39.472Z,25.60
2022-09-07T13:43:23.904Z,25.64
2022-09-07T13:46:03.551Z,25.71
2022-09-07T13:48:57.994Z,25.83
2022-09-07T13:51:49.403Z,26.00
2022-09-07T13:54:40.068Z,26.14
2022-09-07T13:57:22.421Z,26.28
2022-09-07T13:59:51.769Z,26.40
2022-09-07T14:02:36.260Z,26.53
2022-09-07T14:05:06.687Z,26.69
2022-09-07T14:07:45.617Z,26.87
2022-09-07T14:10:25.163Z,27.07
2022-09-07T14:13:08.096Z,27.22
2022-09-07T14:15:41.707Z,27.29
2022-09-07T14:18:22.434Z,27.28
2022-09-07T14:20:52.516Z,27.29
2022-09-07T14:23:29.875Z,27.15
2022-09-07T14:26:23.268Z,26.85
2022-09-07T14:28:54.297Z,26.52
2022-09-07T14:31:24.563Z,26.29
2022-09-07T14:33:56.899Z,26.09
2022-09-07T14:36:44.752Z,25.93
2022-09-07T14:39:16.238Z,25.83
2022-09-07T14:41:44.902Z,25.75
2022-09-07T14:44:38.736Z,25.64
2022-09-07T14:47:19.672Z,25.52
2022-09-07T14:49:57.369Z,25.50
2022-09-07T14:52:43.067Z,25.52
2022-09-07T14:55:41.863Z,25.55
2022-09-07T14:58:13.374Z,25.54
2022-09-07T15:01:37.137Z,25.55
2022-09-07T15:03:56.283Z,25.48
2022-09-07T15:09:37.023Z,25.54
2022-09-07T15:12:17.686Z,25.84
2022-09-07T15:14:45.864Z,27.36
2022-09-07T15:17:48.489Z,29.43
2022-09-07T15:20:37.304Z,30.36
2022-09-07T15:23:10.645Z,30.59
2022-09-07T15:25:40.735Z,30.22
2022-09-07T15:34:15.754Z,28.36
2022-09-07T15:36:48.726Z,28.08
2022-09-07T15:39:19.353Z,27.84
2022-09-07T15:41:47.886Z,27.53
2022-09-07T15:44:19.437Z,27.28
2022-09-07T15:49:40.097Z,26.83
2022-09-07T15:52:10.035Z,26.79
2022-09-07T15:54:39.843Z,27.00
2022-09-07T15:59:57.303Z,27.47
2022-09-07T16:05:13.982Z,32.24
2022-09-07T16:10:31.738Z,35.80
2022-09-07T16:13:01.155Z,36.76
2022-09-07T16:15:31.284Z,37.51
2022-09-07T16:17:59.132Z,38.24
2022-09-07T16:20:32.417Z,38.84
2022-09-07T16:23:16.934Z,39.04
2022-09-07T16:25:59.102Z,37.89
2022-09-07T16:28:28.245Z,35.92
2022-09-07T16:30:58.497Z,34.32
2022-09-07T16:33:34.421Z,33.03
2022-09-07T16:36:07.343Z,31.91
2022-09-07T16:38:51.120Z,31.03
2022-09-07T16:41:23.048Z,30.21
2022-09-07T16:43:50.858Z,29.55
2022-09-07T16:46:22.234Z,29.00
2022-09-07T16:48:53.935Z,28.52
2022-09-07T16:51:25.051Z,28.15
2022-09-07T16:53:56.626Z,27.82
2022-09-07T16:56:27.063Z,27.49
2022-09-07T16:59:01.078Z,27.16
2022-09-07T17:01:32.680Z,26.87
2022-09-07T17:04:04.355Z,26.64
2022-09-07T17:06:34.631Z,26.40
2022-09-07T17:09:02.467Z,26.17
2022-09-07T17:11:33.825Z,25.99
2022-09-07T17:14:02.325Z,25.80
2022-09-07T17:16:33.276Z,25.59
2022-09-07T17:21:52.934Z,25.19
2022-09-07T17:24:21.605Z,25.00
2022-09-07T17:26:49.864Z,24.81
2022-09-07T17:29:18.409Z,24.62
2022-09-07T17:34:34.251Z,24.32
2022-09-07T17:37:02.051Z,24.17
2022-09-07T17:39:37.153Z,24.03
2022-09-07T17:42:10.464Z,23.89
2022-09-07T17:44:39.659Z,23.77
2022-09-07T17:47:07.525Z,23.68
2022-09-07T17:49:35.975Z,23.57
2022-09-07T17:52:04.201Z,23.47
2022-09-07T17:54:32.997Z,23.38
2022-09-07T17:57:00.858Z,23.29
2022-09-07T18:02:17.109Z,23.14
2022-09-07T18:04:45.659Z,23.07
2022-09-07T18:07:13.495Z,22.99
2022-09-07T18:09:41.430Z,22.91
2022-09-07T18:12:09.739Z,22.83
2022-09-07T18:14:37.496Z,22.75
2022-09-07T18:17:06.036Z,22.69
2022-09-07T18:19:36.470Z,22.63
2022-09-07T18:22:05.288Z,22.56
2022-09-07T18:24:36.898Z,22.50
2022-09-07T18:27:05.746Z,22.46
2022-09-07T18:29:34.490Z,22.41
2022-09-07T18:32:08.410Z,22.35
2022-09-07T18:34:41.138Z,22.30
2022-09-07T18:37:12.434Z,22.26
2022-09-07T18:39:41.187Z,22.22
2022-09-07T18:42:09.826Z,22.17
2022-09-07T18:47:29.192Z,22.05
2022-09-07T18:49:58.922Z,21.96
2022-09-07T18:55:16.528Z,21.78
2022-09-07T18:57:44.947Z,21.70
2022-09-07T19:00:14.258Z,21.64
2022-09-07T19:02:42.664Z,21.60
2022-09-07T19:07:59.817Z,21.51
2022-09-07T19:10:28.204Z,21.46
2022-09-07T19:12:56.430Z,21.42
2022-09-07T19:15:24.659Z,21.40
2022-09-07T19:17:52.525Z,21.40
2022-09-07T19:20:20.362Z,21.39
2022-09-07T19:22:49.227Z,21.38
2022-09-07T19:25:19.778Z,21.35
2022-09-07T19:27:47.972Z,21.32
2022-09-07T19:30:17.548Z,21.28
2022-09-07T19:32:46.729Z,21.24
2022-09-07T19:35:14.531Z,21.21
2022-09-07T19:37:43.219Z,21.18
2022-09-07T19:40:17.117Z,21.12
2022-09-07T19:42:46.926Z,21.05
2022-09-07T19:45:16.006Z,20.97
2022-09-07T19:47:44.955Z,20.91
2022-09-07T19:50:12.776Z,20.85
2022-09-07T19:52:40.653Z,20.81
2022-09-07T19:55:09.257Z,20.79
2022-09-07T19:57:37.057Z,20.78
2022-09-07T20:00:07.283Z,20.76
2022-09-07T20:02:40.367Z,20.74
2022-09-07T20:05:08.574Z,20.68
2022-09-07T20:07:36.416Z,20.62
2022-09-07T20:10:04.423Z,20.57
2022-09-07T20:12:33.147Z,20.53
2022-09-07T20:15:01.451Z,20.48
2022-09-07T20:17:34.447Z,20.44
2022-09-07T20:20:05.186Z,20.40
2022-09-07T20:22:34.456Z,20.34
2022-09-07T20:25:02.196Z,20.32
2022-09-07T20:27:30.854Z,20.30
2022-09-07T20:29:58.746Z,20.29
2022-09-07T20:32:28.407Z,20.28
2022-09-07T20:34:56.490Z,20.23
2022-09-07T20:37:29.213Z,20.20
2022-09-07T20:40:06.664Z,20.17
2022-09-07T20:42:34.986Z,20.14
2022-09-07T20:45:04.377Z,20.10
2022-09-07T20:47:32.746Z,20.05
2022-09-07T20:50:00.587Z,20.02
2022-09-07T20:52:28.451Z,19.97
2022-09-07T20:54:56.425Z,19.94
2022-09-07T20:57:24.874Z,19.93
2022-09-07T20:59:53.044Z,19.93
2022-09-07T21:02:20.824Z,19.93
2022-09-07T21:04:49.090Z,19.91
2022-09-07T21:07:16.963Z,19.88
2022-09-07T21:09:44.787Z,19.83
2022-09-07T21:12:12.611Z,19.79
2022-09-07T21:14:40.543Z,19.77
2022-09-07T21:17:08.753Z,19.77
2022-09-07T21:19:37.234Z,19.75
2022-09-07T21:22:05.384Z,19.76
2022-09-07T21:24:33.174Z,19.79
2022-09-07T21:27:00.969Z,19.81
2022-09-07T21:29:28.777Z,19.82
2022-09-07T21:31:57.485Z,19.81
2022-09-07T21:34:25.614Z,19.80
2022-09-07T21:36:53.384Z,19.79
2022-09-07T21:39:21.661Z,19.79
2022-09-07T21:41:50.364Z,19.78
2022-09-07T21:44:18.407Z,19.76
2022-09-07T21:46:46.347Z,19.75
2022-09-07T21:49:14.219Z,19.77
2022-09-07T21:51:42.223Z,19.80
2022-09-07T21:54:10.444Z,19.82
2022-09-07T21:56:43.105Z,19.82
2022-09-07T21:59:14.036Z,19.82
2022-09-07T22:01:41.941Z,19.81
2022-09-07T22:04:10.120Z,19.77
2022-09-07T22:06:38.638Z,19.73
2022-09-07T22:09:07.387Z,19.70
2022-09-07T22:11:35.510Z,19.66
2022-09-07T22:14:05.394Z,19.64
2022-09-07T22:16:35.876Z,19.62
2022-09-07T22:19:05.544Z,19.64
2022-09-07T22:21:34.061Z,19.67
2022-09-07T22:24:05.385Z,19.67
2022-09-07T22:26:37.700Z,19.65
2022-09-07T22:29:07.835Z,19.64
2022-09-07T22:31:37.453Z,19.62
2022-09-07T22:34:10.409Z,19.59
2022-09-07T22:36:40.902Z,19.57
2022-09-07T22:39:15.977Z,19.58
2022-09-07T22:41:46.287Z,19.61
2022-09-07T22:44:16.400Z,19.65
2022-09-07T22:46:46.167Z,19.68
2022-09-07T22:49:16.262Z,19.67
2022-09-07T22:51:44.619Z,19.65
2022-09-07T22:54:12.877Z,19.63
2022-09-07T22:56:41.069Z,19.60
2022-09-07T22:59:10.533Z,19.58
2022-09-07T23:01:39.155Z,19.54
2022-09-07T23:04:08.744Z,19.54
2022-09-07T23:06:39.376Z,19.57
2022-09-07T23:09:13.240Z,19.59
2022-09-07T23:11:41.601Z,19.61
2022-09-07T23:14:15.871Z,19.60
2022-09-07T23:16:44.907Z,19.58
2022-09-07T23:19:14.355Z,19.56
2022-09-07T23:21:42.368Z,19.52
2022-09-07T23:24:14.159Z,19.50
2022-09-07T23:26:43.074Z,19.46
2022-09-07T23:29:13.015Z,19.42
2022-09-07T23:31:41.786Z,19.36
2022-09-07T23:34:09.839Z,19.33
2022-09-07T23:36:37.768Z,19.32
2022-09-07T23:39:05.869Z,19.31
2022-09-07T23:41:33.646Z,19.32
2022-09-07T23:44:01.667Z,19.31
2022-09-07T23:46:29.568Z,19.27
2022-09-07T23:48:57.404Z,19.23
2022-09-07T23:51:25.723Z,19.18
2022-09-07T23:53:53.869Z,19.14
2022-09-07T23:56:24.619Z,19.09
2022-09-07T23:58:52.522Z,19.05
